Time;durP1;ratioP1;P1;durP2;ratioP2;P2;SDS_P1;SDS_P2;PMS_P1;PMS_P2;Temp;Humidity;BMP_temperature;BMP_pressure;BME280_temperature;BME280_humidity;BME280_pressure;Samples;Min_cycle;Max_cycle;Signal;HPM_P1;HPM_P2
2021/11/07 00:01:49;;;;;;;16.83;10.48;;;11.00;99.90;;;;;;5031583;28;20033;-75
2021/11/07 00:07:08;;;;;;;15.15;9.57;;;11.00;99.90;;;;;;5028058;28;20354;-77
2021/11/07 00:09:43;;;;;;;10.75;9.40;;;11.00;99.90;;;;;;5032244;28;20049;-76
2021/11/07 00:12:15;;;;;;;13.98;8.55;;;11.10;99.90;;;;;;5035772;28;20022;-78
2021/11/07 00:14:41;;;;;;;16.02;8.18;;;11.10;99.90;;;;;;5035851;28;20029;-76
2021/11/07 00:17:07;;;;;;;12.60;8.18;;;11.10;99.90;;;;;;5035186;28;20017;-77
2021/11/07 00:22:08;;;;;;;15.75;8.75;;;11.10;99.90;;;;;;5035679;28;20373;-78
2021/11/07 00:24:44;;;;;;;8.73;7.05;;;11.20;99.90;;;;;;5018243;28;20029;-77
2021/11/07 00:30:09;;;;;;;9.32;7.35;;;11.20;99.90;;;;;;5035584;28;20032;-77
2021/11/07 00:39:06;;;;;;;11.65;6.80;;;11.20;99.90;;;;;;5035412;28;20030;-77
2021/11/07 00:41:13;;;;;;;10.07;6.40;;;11.20;99.90;;;;;;5024645;28;20033;-76
2021/11/07 00:43:49;;;;;;;9.68;6.45;;;11.30;99.90;;;;;;5034905;28;20033;-76
2021/11/07 00:46:42;;;;;;;7.93;6.35;;;11.30;99.90;;;;;;5035668;28;20025;-77
2021/11/07 00:49:10;;;;;;;11.90;6.35;;;11.30;99.90;;;;;;5034826;28;20041;-76
2021/11/07 00:54:31;;;;;;;14.18;7.43;;;11.30;99.90;;;;;;5034960;28;20079;-78
2021/11/07 00:57:03;;;;;;;15.07;6.55;;;11.40;99.90;;;;;;5035282;28;20389;-78
2021/11/07 01:02:16;;;;;;;9.13;6.03;;;11.40;99.90;;;;;;5035112;28;20025;-77
2021/11/07 01:04:45;;;;;;;11.60;5.88;;;11.40;99.90;;;;;;5033764;28;20071;-77
2021/11/07 01:07:11;;;;;;;13.13;6.22;;;11.40;99.90;;;;;;5034767;28;20022;-77
2021/11/07 01:09:38;;;;;;;12.18;5.95;;;11.40;99.90;;;;;;5033109;28;20029;-77
2021/11/07 01:12:05;;;;;;;12.20;5.35;;;11.40;99.90;;;;;;5033970;28;20039;-77
2021/11/07 01:14:31;;;;;;;14.32;6.63;;;11.40;99.90;;;;;;5034855;28;20026;-76
2021/11/07 01:16:56;;;;;;;13.10;5.85;;;11.40;99.90;;;;;;5034874;28;20402;-76
2021/11/07 01:19:22;;;;;;;17.40;6.82;;;11.40;99.90;;;;;;5033831;28;20064;-76
2021/11/07 01:21:48;;;;;;;13.82;6.15;;;11.40;99.90;;;;;;5035017;28;20424;-75
2021/11/07 01:24:20;;;;;;;12.77;5.20;;;11.70;99.90;;;;;;5036384;28;20033;-76
2021/11/07 01:26:50;;;;;;;22.75;6.40;;;11.50;99.90;;;;;;5034816;28;20497;-76
2021/11/07 01:29:20;;;;;;;14.52;6.38;;;11.50;99.90;;;;;;5034894;28;20057;-76
2021/11/07 01:31:47;;;;;;;17.45;5.82;;;11.50;99.90;;;;;;5034166;28;20022;-78
2021/11/07 01:34:40;;;;;;;10.45;5.53;;;11.50;99.90;;;;;;5023749;28;20370;-77
2021/11/07 01:37:13;;;;;;;15.13;5.60;;;11.50;99.90;;;;;;5033734;28;20060;-76
2021/11/07 01:39:48;;;;;;;17.83;6.72;;;11.60;99.90;;;;;;5033449;28;20567;-76
2021/11/07 01:42:36;;;;;;;18.90;6.20;;;11.60;99.90;;;;;;5033857;28;20022;-78
2021/11/07 01:45:13;;;;;;;17.90;5.95;;;11.50;99.90;;;;;;5035180;28;20067;-78
2021/11/07 01:47:47;;;;;;;19.05;5.45;;;11.60;99.90;;;;;;5034019;28;20136;-77
2021/11/07 01:50:13;;;;;;;17.98;6.10;;;11.60;99.90;;;;;;5035123;28;20022;-76
2021/11/07 01:52:42;;;;;;;15.60;4.63;;;11.60;99.90;;;;;;5033697;28;20606;-77
2021/11/07 01:55:08;;;;;;;16.88;5.28;;;11.70;99.90;;;;;;5033613;28;20384;-78
2021/11/07 01:57:36;;;;;;;12.52;3.85;;;11.70;99.90;;;;;;5033823;28;20061;-76
2021/11/07 02:00:18;;;;;;;23.17;5.93;;;11.70;99.90;;;;;;5033822;28;20076;-76
2021/11/07 02:02:44;;;;;;;21.63;4.95;;;11.70;99.90;;;;;;5032957;28;20140;-77
2021/11/07 02:05:09;;;;;;;20.35;4.95;;;11.70;99.90;;;;;;5033828;28;20139;-77
2021/11/07 02:07:38;;;;;;;17.73;4.45;;;11.80;99.90;;;;;;5033126;28;20026;-77
2021/11/07 02:10:07;;;;;;;23.17;5.28;;;11.80;99.90;;;;;;5034115;28;20435;-76
2021/11/07 02:12:33;;;;;;;20.77;5.05;;;11.80;99.90;;;;;;5030411;28;20030;-76
2021/11/07 02:14:59;;;;;;;13.70;4.50;;;11.80;99.90;;;;;;5024791;28;20032;-76
2021/11/07 02:17:25;;;;;;;22.65;4.60;;;11.80;99.90;;;;;;5033155;28;20041;-76
2021/11/07 02:19:51;;;;;;;20.00;4.57;;;11.90;99.90;;;;;;5034262;28;20025;-76
2021/11/07 02:22:17;;;;;;;17.42;4.90;;;11.90;99.90;;;;;;5033051;28;20034;-78
2021/11/07 02:24:43;;;;;;;15.27;4.70;;;12.00;99.90;;;;;;5019352;28;20025;-75
2021/11/07 02:27:09;;;;;;;19.20;5.55;;;11.90;99.90;;;;;;5033807;28;20395;-77
2021/11/07 02:29:37;;;;;;;19.38;4.07;;;12.00;99.90;;;;;;5034214;28;20029;-75
2021/11/07 02:32:03;;;;;;;13.48;4.88;;;11.90;99.90;;;;;;5032332;28;20029;-76
2021/11/07 02:34:30;;;;;;;18.83;5.32;;;12.00;99.90;;;;;;5032552;28;20037;-77
2021/11/07 02:36:56;;;;;;;11.10;4.97;;;12.00;99.90;;;;;;5032489;28;20183;-77
2021/11/07 02:39:24;;;;;;;18.98;6.35;;;12.10;99.90;;;;;;5033276;28;20025;-77
2021/11/07 02:41:50;;;;;;;18.33;6.00;;;12.10;99.90;;;;;;5033470;28;20094;-77
2021/11/07 02:44:29;;;;;;;24.23;6.40;;;12.10;99.90;;;;;;5032787;28;20478;-77
2021/11/07 02:46:55;;;;;;;23.50;5.80;;;12.10;99.90;;;;;;5032793;28;20033;-76
2021/11/07 02:49:21;;;;;;;20.58;5.30;;;12.10;99.90;;;;;;5032521;28;20029;-76
2021/11/07 02:51:47;;;;;;;15.93;6.05;;;12.10;99.90;;;;;;5032533;28;20381;-77
2021/11/07 02:54:13;;;;;;;17.88;6.07;;;12.10;99.90;;;;;;5033494;28;20021;-77
2021/11/07 02:56:41;;;;;;;25.30;5.65;;;12.10;99.90;;;;;;5031810;28;20430;-77
2021/11/07 02:59:08;;;;;;;19.40;7.75;;;12.10;99.90;;;;;;5032671;28;20083;-77
2021/11/07 03:01:35;;;;;;;19.63;6.03;;;12.10;99.90;;;;;;5032379;28;20041;-76
2021/11/07 03:04:06;;;;;;;25.67;6.78;;;12.00;99.90;;;;;;5031648;28;20091;-76
2021/11/07 03:06:33;;;;;;;17.55;6.00;;;12.00;99.90;;;;;;5032212;28;20036;-77
2021/11/07 03:08:59;;;;;;;18.98;6.22;;;12.00;99.90;;;;;;5032547;28;20022;-76
2021/11/07 03:11:25;;;;;;;25.67;6.00;;;12.00;99.90;;;;;;5031539;28;20541;-76
2021/11/07 03:13:50;;;;;;;15.25;5.65;;;12.00;99.90;;;;;;5032373;28;20485;-76
2021/11/07 03:16:16;;;;;;;20.45;5.55;;;12.00;99.90;;;;;;5032398;28;20053;-75
2021/11/07 03:18:42;;;;;;;19.98;6.93;;;12.00;99.90;;;;;;5031433;28;20029;-77
2021/11/07 03:21:10;;;;;;;15.48;5.68;;;12.00;99.90;;;;;;5032727;28;20029;-75
2021/11/07 03:23:37;;;;;;;15.75;6.63;;;12.10;99.90;;;;;;5032413;28;20029;-75
2021/11/07 03:26:08;;;;;;;15.57;6.82;;;12.10;99.90;;;;;;5032255;28;20051;-76
2021/11/07 03:28:34;;;;;;;15.68;6.07;;;12.10;99.90;;;;;;5032938;28;20025;-77
2021/11/07 03:31:17;;;;;;;20.65;7.00;;;12.10;99.90;;;;;;5033342;28;20428;-77
2021/11/07 03:33:49;;;;;;;13.10;5.13;;;12.10;99.90;;;;;;5020493;28;20416;-77
2021/11/07 03:36:17;;;;;;;11.40;3.40;;;12.20;99.90;;;;;;5032746;28;20126;-77
2021/11/07 03:38:44;;;;;;;15.43;3.22;;;12.10;99.90;;;;;;5032849;28;20104;-76
2021/11/07 03:41:11;;;;;;;13.73;4.22;;;12.10;99.90;;;;;;5032190;28;20025;-76
2021/11/07 03:43:37;;;;;;;11.73;3.67;;;12.10;99.90;;;;;;5032339;28;20030;-77
2021/11/07 03:46:04;;;;;;;17.27;3.78;;;12.10;99.90;;;;;;5031907;28;20026;-75
2021/11/07 03:48:30;;;;;;;17.85;3.92;;;12.00;99.90;;;;;;5032278;28;20025;-77
2021/11/07 03:50:57;;;;;;;15.45;3.50;;;11.90;99.90;;;;;;5032579;28;20148;-76
2021/11/07 03:53:23;;;;;;;12.88;2.90;;;11.90;99.90;;;;;;5031654;28;20071;-76
2021/11/07 03:55:49;;;;;;;12.88;3.05;;;11.90;99.90;;;;;;5032859;28;20464;-77
2021/11/07 03:58:15;;;;;;;14.65;3.25;;;11.70;99.90;;;;;;5031695;28;20056;-76
2021/11/07 04:00:42;;;;;;;15.68;3.50;;;11.70;99.90;;;;;;5030843;28;20022;-77
2021/11/07 04:03:08;;;;;;;10.82;2.63;;;11.70;99.90;;;;;;5031820;28;20477;-77
2021/11/07 04:05:35;;;;;;;16.67;5.13;;;11.60;99.90;;;;;;5027347;28;20030;-76
2021/11/07 04:08:01;;;;;;;7.97;1.88;;;11.70;99.90;;;;;;5022037;28;20034;-77
2021/11/07 04:10:27;;;;;;;15.00;3.40;;;11.60;99.90;;;;;;5031334;28;20032;-76
2021/11/07 04:12:53;;;;;;;21.38;3.13;;;11.50;99.90;;;;;;5031690;28;20113;-76
2021/11/07 04:15:18;;;;;;;23.38;4.03;;;11.50;99.90;;;;;;5030761;28;20497;-77
2021/11/07 04:17:45;;;;;;;15.63;2.90;;;11.60;99.90;;;;;;5031403;28;20032;-76
2021/11/07 04:20:12;;;;;;;14.68;2.50;;;11.60;99.90;;;;;;5031908;28;20036;-77
2021/11/07 04:22:38;;;;;;;13.95;3.83;;;11.50;99.90;;;;;;5029769;28;20044;-77
2021/11/07 04:25:05;;;;;;;14.50;2.65;;;11.50;99.90;;;;;;5018889;28;20021;-78
2021/11/07 04:27:31;;;;;;;14.98;2.05;;;11.40;99.90;;;;;;5031246;28;20108;-76
2021/11/07 04:29:56;;;;;;;12.82;4.25;;;11.40;99.90;;;;;;5031588;28;20116;-78
2021/11/07 04:32:22;;;;;;;21.70;2.72;;;11.40;99.90;;;;;;5022277;28;20050;-76
2021/11/07 04:34:48;;;;;;;9.55;2.35;;;11.20;99.90;;;;;;5028975;28;20017;-78
2021/11/07 04:37:18;;;;;;;12.32;2.00;;;11.20;99.90;;;;;;5030706;28;20053;-76
2021/11/07 04:39:45;;;;;;;24.63;2.97;;;11.20;99.90;;;;;;5031027;28;20053;-76
2021/11/07 04:42:11;;;;;;;11.98;3.13;;;11.20;99.90;;;;;;5030865;28;20425;-78
2021/11/07 04:44:36;;;;;;;14.07;2.08;;;11.10;99.90;;;;;;5031863;28;20067;-77
2021/11/07 04:47:03;;;;;;;9.93;2.90;;;11.00;99.90;;;;;;5031663;28;20021;-78
2021/11/07 04:49:29;;;;;;;11.80;2.33;;;11.10;99.90;;;;;;5031302;28;20064;-76
2021/11/07 04:51:55;;;;;;;11.13;1.98;;;11.00;99.90;;;;;;5031872;28;20438;-77
2021/11/07 04:54:20;;;;;;;14.48;3.17;;;11.00;99.90;;;;;;5032051;28;20053;-77
2021/11/07 04:56:47;;;;;;;16.33;2.80;;;11.00;99.90;;;;;;5034501;28;20029;-76
2021/11/07 04:59:12;;;;;;;15.25;2.42;;;10.90;99.90;;;;;;5035000;28;20025;-76
2021/11/07 05:01:38;;;;;;;18.02;2.78;;;11.80;99.90;;;;;;5034617;28;20473;-77
2021/11/07 05:04:05;;;;;;;15.25;4.13;;;10.80;99.90;;;;;;5020517;28;20057;-77
2021/11/07 05:06:31;;;;;;;14.70;3.30;;;10.80;99.90;;;;;;5035276;28;20110;-78
2021/11/07 05:08:56;;;;;;;15.20;3.00;;;10.80;99.90;;;;;;5034697;28;20033;-77
2021/11/07 05:11:22;;;;;;;10.32;2.40;;;10.90;99.90;;;;;;5034174;28;20037;-77
2021/11/07 05:13:48;;;;;;;13.50;2.55;;;10.80;99.90;;;;;;5033360;28;20103;-76
2021/11/07 05:16:14;;;;;;;12.35;2.92;;;10.90;99.90;;;;;;5023193;28;20017;-78
2021/11/07 05:18:39;;;;;;;13.65;2.30;;;10.90;99.90;;;;;;5033569;28;20030;-77
2021/11/07 05:21:05;;;;;;;13.07;2.95;;;11.00;99.90;;;;;;5034663;28;20053;-78
2021/11/07 05:23:30;;;;;;;18.27;3.63;;;11.00;99.90;;;;;;5034124;28;20037;-76
2021/11/07 05:25:57;;;;;;;13.45;2.72;;;11.00;99.90;;;;;;5033312;28;20021;-76
2021/11/07 05:28:26;;;;;;;15.15;2.30;;;11.10;99.90;;;;;;5036210;28;20056;-77
2021/11/07 05:30:53;;;;;;;18.42;2.50;;;11.20;99.90;;;;;;5034776;28;20373;-78
2021/11/07 05:33:18;;;;;;;7.30;2.22;;;11.20;99.90;;;;;;5034327;28;20396;-77
2021/11/07 05:35:45;;;;;;;20.45;3.63;;;11.20;99.90;;;;;;5034806;28;20087;-76
2021/11/07 05:38:10;;;;;;;16.50;2.42;;;11.20;99.90;;;;;;5034557;28;20097;-77
2021/11/07 05:40:36;;;;;;;11.27;2.60;;;11.20;99.90;;;;;;5033130;28;20029;-76
2021/11/07 05:43:01;;;;;;;12.10;2.22;;;11.10;99.90;;;;;;5034340;28;20033;-77
2021/11/07 05:45:27;;;;;;;14.70;2.40;;;11.10;99.90;;;;;;5033780;28;20022;-76
2021/11/07 05:47:53;;;;;;;16.75;2.97;;;11.10;99.90;;;;;;5034089;28;20026;-76
2021/11/07 05:50:20;;;;;;;20.73;3.08;;;11.00;99.90;;;;;;5033892;28;20135;-77
2021/11/07 05:52:46;;;;;;;14.45;2.03;;;11.00;99.90;;;;;;5033344;28;20030;-78
2021/11/07 05:55:12;;;;;;;19.88;3.28;;;11.00;99.90;;;;;;5033610;28;20599;-77
2021/11/07 05:57:38;;;;;;;14.73;3.13;;;11.00;99.90;;;;;;5033344;28;20021;-76
2021/11/07 06:00:05;;;;;;;16.20;2.30;;;10.90;99.90;;;;;;5033162;28;20052;-78
2021/11/07 06:02:30;;;;;;;14.38;2.97;;;10.80;99.90;;;;;;5033813;28;20048;-76
2021/11/07 06:04:56;;;;;;;18.30;2.83;;;10.80;99.90;;;;;;5038277;28;20025;-77
2021/11/07 06:07:22;;;;;;;11.73;2.67;;;10.70;99.90;;;;;;5032713;28;20467;-76
2021/11/07 06:09:47;;;;;;;16.05;2.85;;;10.70;99.90;;;;;;5033882;28;20481;-77
2021/11/07 06:12:13;;;;;;;16.27;2.90;;;10.70;99.90;;;;;;5034864;28;20018;-77
2021/11/07 06:14:39;;;;;;;17.13;2.38;;;10.60;99.90;;;;;;5033709;28;20025;-77
2021/11/07 06:17:05;;;;;;;12.05;2.60;;;10.50;99.90;;;;;;5034275;28;20032;-75
2021/11/07 06:19:31;;;;;;;9.02;1.63;;;10.60;99.90;;;;;;5033748;28;20079;-76
2021/11/07 06:21:57;;;;;;;13.50;2.70;;;10.50;99.90;;;;;;5033585;28;20482;-78
2021/11/07 06:24:27;;;;;;;11.80;2.38;;;10.50;99.90;;;;;;5032866;28;20037;-76
2021/11/07 06:26:55;;;;;;;16.42;2.50;;;10.50;99.90;;;;;;5033494;28;20048;-78
2021/11/07 06:29:26;;;;;;;9.10;2.30;;;10.40;99.90;;;;;;5032229;28;20122;-76
2021/11/07 06:31:54;;;;;;;12.93;3.50;;;10.40;99.90;;;;;;5033072;28;20385;-77
2021/11/07 06:34:21;;;;;;;22.10;3.65;;;10.30;99.90;;;;;;5032712;28;20359;-76
2021/11/07 06:36:48;;;;;;;9.52;2.75;;;10.30;99.90;;;;;;5031597;28;20049;-77
2021/11/07 06:39:14;;;;;;;12.10;2.67;;;10.20;99.90;;;;;;5033033;28;20477;-77
2021/11/07 06:41:40;;;;;;;18.27;3.72;;;10.20;99.90;;;;;;5032236;28;20137;-77
2021/11/07 06:44:14;;;;;;;16.75;3.30;;;10.10;99.90;;;;;;5032278;28;20116;-76
2021/11/07 06:46:39;;;;;;;12.40;2.63;;;10.20;99.90;;;;;;5032964;28;20445;-76
2021/11/07 06:49:10;;;;;;;16.90;2.50;;;10.20;99.90;;;;;;5032269;28;20033;-77
2021/11/07 06:51:36;;;;;;;13.50;2.30;;;10.10;99.90;;;;;;5032507;28;20481;-78
2021/11/07 06:54:01;;;;;;;23.83;3.38;;;10.10;99.90;;;;;;5033656;28;20045;-76
2021/11/07 06:56:27;;;;;;;13.35;3.15;;;10.00;99.90;;;;;;5032259;28;20144;-77
2021/11/07 06:58:56;;;;;;;11.43;2.42;;;10.00;99.90;;;;;;5032521;28;20017;-78
2021/11/07 07:01:22;;;;;;;23.95;4.20;;;10.00;99.90;;;;;;5032031;28;20029;-77
2021/11/07 07:03:47;;;;;;;12.52;2.30;;;10.10;99.90;;;;;;5029949;28;20053;-75
2021/11/07 07:06:14;;;;;;;27.35;3.65;;;10.10;99.90;;;;;;5031254;28;20103;-74
2021/11/07 07:08:44;;;;;;;18.30;3.15;;;10.00;99.90;;;;;;5031107;28;20026;-77
2021/11/07 07:11:13;;;;;;;;;;;10.10;99.90;;;;;;5028422;28;20025;-75
2021/11/07 07:13:52;;;;;;;16.77;2.70;;;10.10;99.90;;;;;;5031021;28;19909;-75
2021/11/07 07:21:33;;;;;;;7.78;2.45;;;10.10;99.90;;;;;;5031683;28;20033;-77
2021/11/07 07:35:01;;;;;;;20.48;3.05;;;10.20;99.90;;;;;;5030956;28;20043;-77
2021/11/07 07:37:26;;;;;;;16.25;3.25;;;10.20;99.90;;;;;;5030953;28;20049;-78
2021/11/07 07:39:53;;;;;;;14.38;3.13;;;10.20;99.90;;;;;;5030113;28;20025;-77
2021/11/07 07:42:19;;;;;;;22.98;2.83;;;10.30;99.90;;;;;;5030876;28;20524;-77
2021/11/07 07:44:48;;;;;;;20.65;3.08;;;10.30;99.90;;;;;;5030068;28;20038;-77
2021/11/07 07:47:14;;;;;;;17.90;2.50;;;10.40;99.90;;;;;;5030336;28;20063;-77
2021/11/07 07:49:41;;;;;;;14.52;3.15;;;10.50;99.90;;;;;;5030417;28;20113;-77
2021/11/07 07:52:06;;;;;;;12.00;2.53;;;10.50;99.90;;;;;;5030467;28;20070;-77
2021/11/07 07:54:32;;;;;;;15.40;2.42;;;10.50;99.90;;;;;;5030678;28;20473;-77
2021/11/07 07:56:58;;;;;;;16.63;2.38;;;10.50;99.90;;;;;;5030931;28;20018;-77
2021/11/07 07:59:23;;;;;;;24.00;5.07;;;10.50;99.90;;;;;;5029724;28;20126;-77
2021/11/07 08:01:55;;;;;;;18.38;2.85;;;10.50;99.90;;;;;;5030527;28;20018;-76
2021/11/07 08:04:21;;;;;;;21.02;3.67;;;10.50;99.90;;;;;;5029875;28;20491;-76
2021/11/07 08:06:46;;;;;;;17.77;2.85;;;10.40;99.90;;;;;;5030078;28;20014;-76
2021/11/07 08:09:12;;;;;;;10.70;2.38;;;10.40;99.90;;;;;;5031246;28;20076;-75
2021/11/07 08:11:39;;;;;;;19.75;5.07;;;10.50;99.90;;;;;;5033332;28;20018;-75
2021/11/07 08:14:05;;;;;;;19.92;2.55;;;10.50;99.90;;;;;;5030292;28;20543;-76
2021/11/07 08:16:31;;;;;;;20.13;3.47;;;10.50;99.90;;;;;;5030854;28;20021;-76
2021/11/07 08:18:58;;;;;;;22.83;3.33;;;10.60;99.90;;;;;;5030677;28;20037;-76
2021/11/07 08:21:30;;;;;;;23.27;2.60;;;10.70;99.90;;;;;;5029862;28;20351;-76
2021/11/07 08:23:55;;;;;;;12.35;2.45;;;10.80;99.90;;;;;;5031035;28;20091;-77
2021/11/07 08:26:22;;;;;;;20.25;2.95;;;10.90;99.90;;;;;;5031949;28;20026;-77
2021/11/07 08:28:48;;;;;;;15.35;2.97;;;10.90;99.90;;;;;;5030400;28;20116;-76
2021/11/07 08:31:22;;;;;;;23.05;4.13;;;10.90;99.90;;;;;;5034229;28;20071;-76
2021/11/07 08:33:49;;;;;;;17.77;2.33;;;10.90;99.90;;;;;;5034143;28;20540;-76
2021/11/07 08:36:20;;;;;;;16.02;2.92;;;11.00;99.90;;;;;;5034627;28;20033;-76
2021/11/07 08:39:14;;;;;;;16.50;3.60;;;11.00;99.90;;;;;;5015067;28;20025;-78
2021/11/07 08:41:32;;;;;;;15.25;3.03;;;10.90;99.90;;;;;;5032689;28;20474;-76
2021/11/07 09:00:25;;;;;;;13.68;2.65;;;11.30;99.90;;;;;;5035164;28;20032;-79
2021/11/07 09:08:16;;;;;;;;;;;11.30;99.90;;;;;;4997325;28;20064;-80
2021/11/07 09:10:43;;;;;;;7.45;2.85;;;11.30;99.90;;;;;;5033274;28;19905;-82
2021/11/07 09:13:11;;;;;;;16.58;2.70;;;11.30;99.90;;;;;;5035729;28;20044;-80
2021/11/07 09:15:40;;;;;;;16.98;2.58;;;11.30;99.90;;;;;;5032867;28;20025;-77
2021/11/07 09:18:06;;;;;;;10.93;2.50;;;11.30;99.90;;;;;;5035337;28;20022;-79
2021/11/07 09:21:38;;;;;;;19.15;2.63;;;11.30;99.90;;;;;;5036603;28;20441;-79
2021/11/07 09:23:37;;;;;;;14.20;2.28;;;11.40;99.90;;;;;;5025001;28;20181;-78
2021/11/07 09:26:21;;;;;;;23.70;2.67;;;11.50;99.90;;;;;;5035367;28;20131;-79
2021/11/07 09:29:07;;;;;;;18.73;3.20;;;11.60;99.90;;;;;;5034860;28;20044;-77
2021/11/07 09:31:43;;;;;;;15.15;2.72;;;11.60;99.90;;;;;;5033785;28;20060;-79
2021/11/07 09:34:17;;;;;;;19.50;2.35;;;11.60;99.90;;;;;;5034611;28;20406;-78
2021/11/07 09:36:51;;;;;;;16.02;2.95;;;11.60;99.90;;;;;;5034346;28;20049;-76
2021/11/07 09:39:28;;;;;;;14.45;3.58;;;11.60;99.90;;;;;;5033995;28;20017;-79
2021/11/07 09:44:21;;;;;;;15.55;2.85;;;11.60;99.90;;;;;;5028698;28;20030;-77
2021/11/07 09:46:51;;;;;;;14.73;2.65;;;11.60;99.90;;;;;;5027362;28;20029;-77
2021/11/07 09:49:25;;;;;;;19.80;2.63;;;11.60;99.90;;;;;;5029711;28;20539;-74
2021/11/07 09:51:56;;;;;;;21.23;2.90;;;11.50;99.90;;;;;;5021369;28;20132;-76
2021/11/07 09:54:24;;;;;;;22.98;3.55;;;11.50;99.90;;;;;;5020152;28;20075;-75
2021/11/07 09:56:52;;;;;;;18.67;2.58;;;11.40;99.90;;;;;;5031121;28;20060;-77
2021/11/07 09:59:18;;;;;;;21.88;3.70;;;11.50;99.90;;;;;;5031301;28;20021;-80
2021/11/07 10:01:45;;;;;;;13.68;2.65;;;11.50;99.90;;;;;;5026453;28;20030;-80
2021/11/07 10:04:13;;;;;;;17.83;2.88;;;11.50;99.90;;;;;;5017812;28;20409;-80
2021/11/07 10:06:53;;;;;;;20.38;3.35;;;11.50;99.90;;;;;;5027379;28;20056;-79
2021/11/07 10:09:37;;;;;;;18.92;2.70;;;11.60;99.90;;;;;;5019187;28;20033;-79
2021/11/07 10:12:32;;;;;;;12.23;2.53;;;11.70;99.90;;;;;;5026689;28;20072;-80
2021/11/07 10:15:00;;;;;;;14.13;2.80;;;11.80;99.90;;;;;;5022531;28;20036;-79
2021/11/07 10:20:33;;;;;;;12.18;2.42;;;11.90;99.90;;;;;;5012225;28;20561;-79
2021/11/07 10:23:28;;;;;;;13.77;3.10;;;11.90;99.90;;;;;;5028862;28;20038;-77
2021/11/07 10:26:18;;;;;;;12.52;2.65;;;12.00;99.90;;;;;;5029269;28;20659;-78
2021/11/07 10:28:50;;;;;;;29.25;4.93;;;12.00;99.90;;;;;;5027807;28;20568;-77
2021/11/07 10:31:33;;;;;;;15.20;2.72;;;12.30;99.90;;;;;;5021736;28;20101;-78
2021/11/07 10:45:24;;;;;;;12.63;2.25;;;12.40;99.90;;;;;;5032465;28;20029;-77
2021/11/07 10:48:15;;;;;;;13.70;2.08;;;12.30;99.90;;;;;;5032869;28;20087;-78
2021/11/07 10:53:27;;;;;;;15.50;2.53;;;12.10;99.90;;;;;;5032632;28;20121;-78
2021/11/07 10:56:04;;;;;;;10.25;1.88;;;11.90;99.90;;;;;;5031859;28;20497;-78
2021/11/07 10:58:38;;;;;;;14.77;3.63;;;11.90;99.90;;;;;;5032709;28;20021;-79
2021/11/07 11:01:13;;;;;;;7.50;1.92;;;11.70;99.90;;;;;;5031077;28;20096;-76
2021/11/07 11:03:58;;;;;;;17.20;2.60;;;11.70;99.90;;;;;;5029113;28;20033;-78
2021/11/07 11:06:24;;;;;;;11.27;2.28;;;11.70;99.90;;;;;;5032269;28;20029;-77
2021/11/07 11:08:56;;;;;;;12.57;2.45;;;11.80;99.90;;;;;;5029328;28;20040;-77
2021/11/07 11:11:32;;;;;;;19.90;3.05;;;12.00;99.90;;;;;;5025852;28;20041;-77
2021/11/07 11:14:17;;;;;;;15.35;3.03;;;11.90;99.90;;;;;;5017053;28;20466;-78
2021/11/07 11:20:06;;;;;;;21.80;3.22;;;11.90;99.90;;;;;;5032277;28;20038;-80
2021/11/07 11:30:37;;;;;;;17.50;3.38;;;12.50;99.90;;;;;;5032100;28;20028;-77
2021/11/07 11:33:19;;;;;;;19.52;2.45;;;12.40;99.90;;;;;;5032643;28;20028;-77
2021/11/07 11:36:01;;;;;;;21.15;3.63;;;12.50;99.90;;;;;;5024185;28;20037;-77
2021/11/07 11:41:04;;;;;;;16.13;2.72;;;12.40;99.90;;;;;;5037993;28;20033;-77
2021/11/07 11:43:46;;;;;;;16.80;2.53;;;12.50;99.90;;;;;;5034945;28;20059;-77
2021/11/07 11:46:34;;;;;;;19.42;4.95;;;12.60;99.90;;;;;;5031241;28;20055;-77
2021/11/07 11:49:26;;;;;;;13.88;2.88;;;12.80;99.90;;;;;;5031902;28;20451;-77
2021/11/07 11:52:11;;;;;;;15.63;2.72;;;12.90;99.90;;;;;;5021315;28;20140;-77
2021/11/07 11:57:49;;;;;;;12.23;2.42;;;13.00;99.90;;;;;;5021294;28;20036;-76
2021/11/07 12:06:31;;;;;;;15.77;2.95;;;12.80;99.90;;;;;;5035774;28;20035;-76
2021/11/07 12:12:02;;;;;;;16.20;3.60;;;12.60;99.90;;;;;;5035865;28;20021;-77
2021/11/07 12:14:46;;;;;;;10.68;2.28;;;12.50;99.90;;;;;;5042716;28;20120;-79
2021/11/07 12:17:24;;;;;;;16.27;3.60;;;12.60;99.90;;;;;;5036089;28;20421;-77
2021/11/07 12:19:51;;;;;;;19.73;3.13;;;12.60;99.90;;;;;;5035134;28;20044;-78
2021/11/07 12:22:25;;;;;;;15.25;2.92;;;12.50;99.90;;;;;;5036063;28;20026;-78
2021/11/07 12:24:51;;;;;;;24.75;3.50;;;12.40;99.90;;;;;;5036478;28;20025;-78
2021/11/07 12:27:41;;;;;;;24.45;2.85;;;12.20;99.90;;;;;;5035615;28;20029;-76
2021/11/07 12:30:14;;;;;;;14.68;2.53;;;12.20;99.90;;;;;;5035729;28;20474;-77
2021/11/07 12:32:45;;;;;;;16.20;3.65;;;12.20;99.90;;;;;;5036654;28;20553;-78
2021/11/07 12:35:28;;;;;;;21.15;3.25;;;12.10;99.90;;;;;;5035478;28;20017;-78
2021/11/07 12:41:11;;;;;;;14.57;2.53;;;12.10;99.90;;;;;;5035057;28;20499;-78
2021/11/07 12:43:43;;;;;;;24.15;2.35;;;12.10;99.90;;;;;;5034619;28;20036;-77
2021/11/07 12:46:43;;;;;;;20.10;2.58;;;12.10;99.90;;;;;;5035327;28;20033;-78
2021/11/07 12:49:21;;;;;;;17.97;2.77;;;12.10;99.90;;;;;;5023364;28;20034;-78
2021/11/07 12:51:49;;;;;;;12.55;2.65;;;12.20;99.90;;;;;;5035041;28;20261;-77
2021/11/07 12:54:26;;;;;;;18.92;3.53;;;12.20;99.90;;;;;;5035450;28;20030;-76
2021/11/07 12:56:56;;;;;;;;;;;12.10;99.90;;;;;;5035692;28;20091;-77
2021/11/07 12:59:24;;;;;;;19.80;3.00;;;12.00;99.90;;;;;;5035266;28;20350;-77
2021/11/07 13:02:08;;;;;;;18.58;3.53;;;12.00;99.90;;;;;;5034627;28;20048;-78
2021/11/07 13:04:42;;;;;;;14.95;3.50;;;12.00;99.90;;;;;;5034721;28;20051;-77
2021/11/07 13:07:11;;;;;;;13.98;2.15;;;12.00;99.90;;;;;;5035488;28;20033;-78
2021/11/07 13:09:43;;;;;;;17.55;3.03;;;12.10;99.90;;;;;;5034336;28;20535;-78
2021/11/07 13:12:20;;;;;;;12.52;2.55;;;12.10;99.90;;;;;;5034995;28;20023;-78
2021/11/07 13:15:28;;;;;;;14.95;3.78;;;12.00;99.90;;;;;;5034955;28;20021;-78
2021/11/07 13:25:55;;;;;;;27.13;3.83;;;11.60;99.90;;;;;;5034947;28;20021;-78
2021/11/07 13:31:17;;;;;;;28.50;5.82;;;11.70;99.90;;;;;;5034942;28;20030;-77
2021/11/07 13:33:44;;;;;;;14.52;3.47;;;11.70;99.90;;;;;;5034426;28;20018;-77
2021/11/07 13:36:15;;;;;;;28.17;5.10;;;11.70;99.90;;;;;;5034090;28;20040;-76
2021/11/07 13:38:53;;;;;;;15.52;3.28;;;11.60;99.90;;;;;;5033648;28;20024;-77
2021/11/07 13:41:23;;;;;;;24.42;3.47;;;11.60;99.90;;;;;;5034099;28;20029;-77
2021/11/07 13:43:57;;;;;;;;;;;11.50;99.90;;;;;;5033716;28;20048;-78
2021/11/07 13:46:22;;;;;;;25.63;3.40;;;11.50;99.90;;;;;;5034355;28;19905;-77
2021/11/07 13:49:01;;;;;;;20.38;4.32;;;11.40;99.90;;;;;;5034668;28;20541;-77
2021/11/07 13:51:27;;;;;;;19.05;3.08;;;11.50;99.90;;;;;;5030952;28;20396;-76
2021/11/07 13:53:58;;;;;;;33.75;3.47;;;11.40;99.90;;;;;;5020598;28;20096;-79
2021/11/07 13:56:24;;;;;;;29.17;3.53;;;11.30;99.90;;;;;;5018573;28;20027;-77
2021/11/07 13:58:50;;;;;;;18.13;4.50;;;11.20;99.90;;;;;;5016295;28;20021;-78
2021/11/07 14:01:17;;;;;;;28.02;5.88;;;11.20;99.90;;;;;;5035797;28;20112;-75
2021/11/07 14:03:44;;;;;;;29.40;3.80;;;11.20;99.90;;;;;;5035858;28;20040;-78
2021/11/07 14:06:14;;;;;;;27.48;5.38;;;11.20;99.90;;;;;;5034925;28;20108;-77
2021/11/07 14:09:04;;;;;;;23.95;3.53;;;11.20;99.90;;;;;;5033805;28;20033;-78
2021/11/07 14:11:33;;;;;;;27.38;4.47;;;11.30;99.90;;;;;;5017591;28;20390;-76
2021/11/07 14:14:02;;;;;;;25.05;3.47;;;11.40;99.90;;;;;;5028015;28;20037;-76
2021/11/07 14:16:56;;;;;;;40.72;5.78;;;11.40;99.90;;;;;;5020056;28;20055;-77
2021/11/07 14:19:21;;;;;;;38.85;7.43;;;11.40;99.90;;;;;;5009730;28;20045;-75
2021/11/07 14:21:50;;;;;;;18.17;2.97;;;11.50;99.90;;;;;;5029927;28;20022;-77
2021/11/07 14:24:23;;;;;;;22.88;2.63;;;11.40;99.90;;;;;;5032162;28;20120;-75
2021/11/07 14:27:18;;;;;;;18.80;2.95;;;11.30;99.90;;;;;;5013426;28;20058;-77
2021/11/07 14:29:55;;;;;;;24.73;3.80;;;11.10;99.90;;;;;;5028785;28;20499;-76
2021/11/07 14:32:25;;;;;;;15.27;3.55;;;10.90;99.90;;;;;;5032550;28;20052;-78
2021/11/07 14:38:08;;;;;;;26.15;6.00;;;10.40;99.90;;;;;;4971617;28;20144;-76
2021/11/07 14:40:46;;;;;;;22.10;4.57;;;10.40;99.90;;;;;;5023095;28;20034;-78
2021/11/07 14:54:01;;;;;;;37.92;5.63;;;10.40;99.90;;;;;;5025431;28;20042;-76
2021/11/07 14:56:33;;;;;;;42.53;7.72;;;10.50;99.90;;;;;;5031672;28;20052;-75
2021/11/07 14:59:19;;;;;;;65.82;9.85;;;10.50;99.90;;;;;;5031069;28;20033;-76
2021/11/07 15:04:42;;;;;;;40.95;6.60;;;10.60;99.90;;;;;;5029158;28;20039;-77
2021/11/07 15:07:24;;;;;;;69.40;12.85;;;10.60;99.90;;;;;;5029354;28;20562;-77
2021/11/07 15:13:15;;;;;;;24.73;4.28;;;10.60;99.90;;;;;;5011520;28;20110;-77